Time;durP1;ratioP1;P1;durP2;ratioP2;P2;SDS_P1;SDS_P2;PMS_P1;PMS_P2;Temp;Humidity;BMP_temperature;BMP_pressure;BME280_temperature;BME280_humidity;BME280_pressure;Samples;Min_cycle;Max_cycle;Signal;HPM_P1;HPM_P2
2022/07/06 00:00:07;;;;;;;12.18;9.08;;;24.00;72.20;;;;;;1808304;79;21120;-63
2022/07/06 00:02:36;;;;;;;10.88;8.20;;;24.10;72.10;;;;;;1808217;79;21093;-63
2022/07/06 00:05:06;;;;;;;17.27;8.65;;;24.10;71.90;;;;;;1808286;79;21017;-63
2022/07/06 00:07:35;;;;;;;8.53;7.60;;;24.00;71.70;;;;;;1808268;79;21097;-63
2022/07/06 00:10:05;;;;;;;12.88;8.70;;;23.90;71.90;;;;;;1808222;79;21094;-63
2022/07/06 00:12:34;;;;;;;8.75;7.58;;;23.80;72.10;;;;;;1808124;79;21058;-63
2022/07/06 00:15:05;;;;;;;11.15;7.85;;;23.70;72.50;;;;;;1808198;79;21042;-63
2022/07/06 00:17:34;;;;;;;9.25;8.23;;;23.60;72.80;;;;;;1808243;79;21101;-63
2022/07/06 00:20:03;;;;;;;10.40;8.15;;;23.50;72.90;;;;;;1808159;79;21014;-63
2022/07/06 00:22:32;;;;;;;10.23;7.65;;;23.40;73.10;;;;;;1808203;79;21038;-63
2022/07/06 00:25:02;;;;;;;12.45;7.67;;;23.40;73.30;;;;;;1808149;79;21084;-63
2022/07/06 00:27:31;;;;;;;12.33;8.40;;;23.30;73.40;;;;;;1808142;79;21445;-63
2022/07/06 00:30:00;;;;;;;10.80;7.53;;;23.30;73.60;;;;;;1808152;79;21022;-63
2022/07/06 00:32:29;;;;;;;10.18;7.45;;;23.30;73.60;;;;;;1808201;79;21037;-63
2022/07/06 00:34:59;;;;;;;9.45;7.53;;;23.30;73.60;;;;;;1808281;79;21096;-62
2022/07/06 00:37:28;;;;;;;11.40;7.95;;;23.40;73.60;;;;;;1808232;79;21186;-62
2022/07/06 00:39:57;;;;;;;12.63;8.23;;;23.40;73.50;;;;;;1808272;79;21097;-62
2022/07/06 00:42:27;;;;;;;9.88;7.58;;;23.40;73.30;;;;;;1808246;79;21027;-62
2022/07/06 00:44:56;;;;;;;11.10;8.03;;;23.40;73.40;;;;;;1808234;79;21531;-63
2022/07/06 00:47:26;;;;;;;13.05;9.08;;;23.40;73.40;;;;;;1808116;79;21146;-62
2022/07/06 00:52:57;;;;;;;21.97;13.30;;;23.40;73.80;;;;;;1808107;79;21108;-62
2022/07/06 00:55:29;;;;;;;16.30;11.78;;;23.40;73.70;;;;;;1815885;78;21067;-62
2022/07/06 00:58:00;;;;;;;22.42;15.18;;;23.40;73.60;;;;;;1830794;78;21104;-62
2022/07/06 01:00:30;;;;;;;21.95;13.85;;;23.50;73.60;;;;;;1831066;78;21466;-62
2022/07/06 01:02:59;;;;;;;17.85;13.20;;;23.50;73.40;;;;;;1831038;78;21117;-62
2022/07/06 01:05:29;;;;;;;18.27;13.75;;;23.50;73.40;;;;;;1830966;78;21027;-62
2022/07/06 01:08:00;;;;;;;20.05;13.85;;;23.60;73.30;;;;;;1831062;78;21068;-62
2022/07/06 01:10:30;;;;;;;18.40;12.58;;;23.60;73.30;;;;;;1830912;78;21139;-62
2022/07/06 01:12:59;;;;;;;19.52;13.58;;;23.70;73.40;;;;;;1831115;78;21504;-62
2022/07/06 01:15:29;;;;;;;20.45;13.80;;;23.60;73.10;;;;;;1831024;78;21104;-62
2022/07/06 01:17:59;;;;;;;15.25;11.15;;;23.60;73.10;;;;;;1831006;78;21043;-62
2022/07/06 01:20:31;;;;;;;14.47;11.43;;;23.60;73.30;;;;;;1830924;78;21121;-62
2022/07/06 01:23:01;;;;;;;17.37;11.15;;;23.60;73.40;;;;;;1830949;78;21097;-62
2022/07/06 01:25:30;;;;;;;15.68;10.43;;;23.60;73.50;;;;;;1830917;78;21152;-62
2022/07/06 01:28:00;;;;;;;14.90;10.03;;;23.60;73.50;;;;;;1830906;78;21042;-62
2022/07/06 01:30:29;;;;;;;20.95;11.45;;;23.60;73.50;;;;;;1830940;78;21039;-62
2022/07/06 01:32:58;;;;;;;19.82;12.45;;;23.60;73.40;;;;;;1831143;78;21027;-62
2022/07/06 01:35:29;;;;;;;16.12;10.88;;;23.60;73.40;;;;;;1831037;78;21083;-63
2022/07/06 01:37:59;;;;;;;13.55;10.65;;;23.50;73.40;;;;;;1830936;78;21039;-63
2022/07/06 01:40:29;;;;;;;12.85;10.28;;;23.60;73.60;;;;;;1830961;78;21023;-63
2022/07/06 01:42:59;;;;;;;12.60;9.68;;;23.50;73.50;;;;;;1830933;78;21027;-64
2022/07/06 01:45:29;;;;;;;13.28;10.32;;;23.50;73.70;;;;;;1830950;78;21035;-63
2022/07/06 01:47:59;;;;;;;14.13;10.60;;;23.40;73.80;;;;;;1830917;78;21031;-63
2022/07/06 01:50:29;;;;;;;13.35;10.58;;;23.40;74.00;;;;;;1830934;78;21027;-64
2022/07/06 01:53:02;;;;;;;11.15;9.50;;;23.40;73.90;;;;;;1830967;78;21035;-64
2022/07/06 01:55:31;;;;;;;18.25;9.88;;;23.50;74.00;;;;;;1830875;78;21059;-64
2022/07/06 01:58:00;;;;;;;16.12;10.90;;;23.50;73.80;;;;;;1830920;78;21105;-64
2022/07/06 02:00:30;;;;;;;14.30;9.83;;;23.50;73.80;;;;;;1830858;78;21470;-64
2022/07/06 02:03:00;;;;;;;12.98;9.88;;;23.40;73.90;;;;;;1830975;78;21039;-64
2022/07/06 02:05:29;;;;;;;10.32;8.85;;;23.40;73.70;;;;;;1830903;78;21059;-63
2022/07/06 02:07:59;;;;;;;10.15;8.50;;;23.30;73.70;;;;;;1830990;78;21039;-63
2022/07/06 02:10:28;;;;;;;17.17;11.57;;;23.20;74.10;;;;;;1830973;78;21104;-63
2022/07/06 02:12:57;;;;;;;9.73;8.70;;;23.10;74.20;;;;;;1830950;78;21027;-63
2022/07/06 02:15:27;;;;;;;14.20;9.45;;;23.00;74.20;;;;;;1830930;78;21031;-64
2022/07/06 02:17:56;;;;;;;11.65;9.63;;;23.00;74.50;;;;;;1830951;78;21030;-64
2022/07/06 02:20:26;;;;;;;12.47;9.93;;;23.00;74.60;;;;;;1830901;78;21086;-64
2022/07/06 02:22:55;;;;;;;13.22;10.72;;;23.00;74.70;;;;;;1830857;78;21110;-64
2022/07/06 02:25:25;;;;;;;16.55;10.15;;;23.00;74.70;;;;;;1831013;78;21068;-64
2022/07/06 02:27:54;;;;;;;15.50;8.15;;;22.90;74.80;;;;;;1830966;78;21139;-64
2022/07/06 02:30:24;;;;;;;10.78;8.53;;;22.90;75.00;;;;;;1830990;78;21035;-64
2022/07/06 02:32:53;;;;;;;10.90;9.43;;;22.90;75.00;;;;;;1830811;78;21043;-64
2022/07/06 02:35:23;;;;;;;23.30;9.70;;;22.80;74.90;;;;;;1830880;78;21063;-64
2022/07/06 02:37:52;;;;;;;14.20;8.93;;;22.80;75.00;;;;;;1830868;78;21027;-64
2022/07/06 02:40:22;;;;;;;11.05;9.38;;;22.80;75.20;;;;;;1830861;78;21043;-64
2022/07/06 02:42:51;;;;;;;16.73;9.80;;;22.80;75.10;;;;;;1830933;78;21039;-64
2022/07/06 02:45:21;;;;;;;10.05;8.20;;;22.80;75.20;;;;;;1830897;78;21051;-64
2022/07/06 02:47:50;;;;;;;10.75;9.65;;;22.90;75.10;;;;;;1830831;78;21019;-64
2022/07/06 02:50:20;;;;;;;11.28;8.98;;;22.90;75.00;;;;;;1830882;78;21168;-64
2022/07/06 02:52:49;;;;;;;11.93;7.70;;;23.00;74.90;;;;;;1830792;78;21066;-64
2022/07/06 02:55:19;;;;;;;15.55;8.65;;;23.10;74.80;;;;;;1830926;78;21050;-64
2022/07/06 02:57:49;;;;;;;15.10;9.70;;;23.10;74.60;;;;;;1830985;78;21101;-63
2022/07/06 03:00:18;;;;;;;39.45;12.00;;;23.10;74.50;;;;;;1830886;78;21077;-63
2022/07/06 03:02:48;;;;;;;17.40;8.70;;;23.10;74.50;;;;;;1830843;78;21034;-63
2022/07/06 03:05:17;;;;;;;10.23;8.95;;;23.10;74.50;;;;;;1830825;78;21101;-64
2022/07/06 03:07:47;;;;;;;25.95;11.85;;;23.10;74.50;;;;;;1830941;78;21117;-64
2022/07/06 03:10:17;;;;;;;15.35;9.18;;;23.20;74.50;;;;;;1811535;78;21082;-63
2022/07/06 03:12:48;;;;;;;13.20;9.85;;;23.10;74.40;;;;;;1830816;78;21094;-63
2022/07/06 03:15:18;;;;;;;10.95;9.78;;;23.10;74.40;;;;;;1830870;78;21011;-64
2022/07/06 03:17:48;;;;;;;20.10;11.60;;;23.10;74.60;;;;;;1830789;78;21004;-64
2022/07/06 03:20:18;;;;;;;13.55;9.45;;;23.10;74.60;;;;;;1830901;78;21027;-64
2022/07/06 03:22:48;;;;;;;11.85;9.48;;;23.10;74.60;;;;;;1830907;78;21019;-63
2022/07/06 03:25:18;;;;;;;23.38;10.08;;;23.20;74.30;;;;;;1830854;78;21047;-64
2022/07/06 03:27:47;;;;;;;16.75;9.38;;;23.20;74.20;;;;;;1830800;78;21020;-64
2022/07/06 03:30:18;;;;;;;14.38;9.73;;;23.10;74.30;;;;;;1830817;78;21063;-64
2022/07/06 03:32:48;;;;;;;11.45;8.90;;;23.20;74.50;;;;;;1830312;78;21161;-64
2022/07/06 03:35:18;;;;;;;14.80;8.43;;;23.20;74.60;;;;;;1831007;78;21042;-64
2022/07/06 03:37:48;;;;;;;21.52;9.65;;;23.30;74.50;;;;;;1830863;78;21043;-64
2022/07/06 03:40:18;;;;;;;13.38;7.92;;;23.50;74.40;;;;;;1830847;78;21047;-64
2022/07/06 03:42:48;;;;;;;11.80;8.25;;;23.60;74.20;;;;;;1830793;78;21122;-64
2022/07/06 03:45:18;;;;;;;10.75;8.48;;;23.80;73.80;;;;;;1830838;78;21468;-64
2022/07/06 03:47:47;;;;;;;12.20;8.68;;;24.00;73.40;;;;;;1830857;78;21093;-64
2022/07/06 03:50:17;;;;;;;12.80;9.18;;;24.10;72.90;;;;;;1830801;78;21043;-64
2022/07/06 03:52:46;;;;;;;10.20;9.23;;;24.20;72.20;;;;;;1830915;78;21039;-64
2022/07/06 03:55:16;;;;;;;11.63;8.10;;;24.10;72.10;;;;;;1830770;78;21075;-64
2022/07/06 03:57:47;;;;;;;12.55;8.28;;;24.10;72.10;;;;;;1816450;78;21159;-64
2022/07/06 04:00:18;;;;;;;11.35;8.90;;;24.10;72.30;;;;;;1808164;79;21077;-64
2022/07/06 04:02:48;;;;;;;13.95;8.50;;;24.10;72.20;;;;;;1807845;79;21565;-64
2022/07/06 04:05:24;;;;;;;28.83;11.20;;;24.20;72.90;;;;;;1807842;79;21081;-64
2022/07/06 04:07:50;;;;;;;18.65;9.30;;;24.30;72.30;;;;;;1807650;79;21086;-64
2022/07/06 04:10:21;;;;;;;10.80;9.10;;;24.40;71.80;;;;;;1808350;79;21523;-64
2022/07/06 04:12:51;;;;;;;11.25;8.63;;;24.40;71.50;;;;;;1808065;79;21100;-64
2022/07/06 04:15:21;;;;;;;14.78;9.30;;;24.50;71.40;;;;;;1808164;79;21050;-64
2022/07/06 04:17:53;;;;;;;16.85;8.88;;;24.50;71.40;;;;;;1808313;79;21101;-64
2022/07/06 04:20:25;;;;;;;27.37;9.77;;;24.60;71.40;;;;;;1807915;78;21034;-64
2022/07/06 04:22:55;;;;;;;12.85;9.28;;;24.60;71.50;;;;;;1808194;79;21030;-64
2022/07/06 04:25:26;;;;;;;29.82;11.55;;;24.80;71.40;;;;;;1808136;79;21069;-64
2022/07/06 04:27:56;;;;;;;13.90;9.73;;;24.90;71.20;;;;;;1808064;79;21130;-64
2022/07/06 04:30:26;;;;;;;18.35;10.35;;;25.00;71.00;;;;;;1808231;79;21105;-64
2022/07/06 04:32:56;;;;;;;13.18;9.33;;;25.20;70.70;;;;;;1808141;79;21190;-64
2022/07/06 04:35:26;;;;;;;14.68;9.43;;;25.30;70.50;;;;;;1808323;79;21077;-64
2022/07/06 04:37:56;;;;;;;14.33;9.83;;;25.50;70.30;;;;;;1808293;79;21089;-64
2022/07/06 04:40:26;;;;;;;20.32;10.13;;;25.60;70.10;;;;;;1808350;79;21097;-64
2022/07/06 04:42:57;;;;;;;11.80;9.63;;;25.80;70.00;;;;;;1807905;79;21009;-64
2022/07/06 04:45:27;;;;;;;14.58;10.78;;;26.00;69.60;;;;;;1808385;79;21038;-64
2022/07/06 04:47:56;;;;;;;21.40;11.18;;;26.10;69.40;;;;;;1808492;79;21034;-63
2022/07/06 04:50:26;;;;;;;18.12;10.50;;;26.10;69.30;;;;;;1808428;79;21093;-63
2022/07/06 04:52:57;;;;;;;13.70;9.98;;;26.20;69.10;;;;;;1808019;79;21053;-63
2022/07/06 04:55:27;;;;;;;17.57;11.12;;;26.20;68.90;;;;;;1808220;79;21046;-63
2022/07/06 04:57:57;;;;;;;14.73;10.45;;;26.20;68.80;;;;;;1817725;77;21070;-63
2022/07/06 05:00:27;;;;;;;23.92;11.25;;;26.30;68.90;;;;;;1830954;78;21145;-63
2022/07/06 05:02:57;;;;;;;23.60;10.60;;;26.30;68.80;;;;;;1830860;78;21188;-63
2022/07/06 05:05:27;;;;;;;14.07;10.08;;;26.40;68.90;;;;;;1830820;78;21535;-63
2022/07/06 05:07:57;;;;;;;26.73;10.63;;;26.50;68.90;;;;;;1830831;78;21042;-63
2022/07/06 05:10:27;;;;;;;13.25;10.05;;;26.60;68.70;;;;;;1830829;78;21105;-63
2022/07/06 05:12:58;;;;;;;13.85;9.93;;;26.70;68.40;;;;;;1812019;78;21047;-63
2022/07/06 05:15:28;;;;;;;14.55;11.30;;;26.70;68.10;;;;;;1831043;78;21019;-63
2022/07/06 05:17:57;;;;;;;14.10;10.35;;;26.70;68.00;;;;;;1830841;78;21186;-63
2022/07/06 05:20:27;;;;;;;13.35;10.68;;;26.70;68.20;;;;;;1830943;78;21039;-63
2022/07/06 05:22:56;;;;;;;16.37;11.05;;;26.80;68.20;;;;;;1830954;78;21141;-63
2022/07/06 05:25:28;;;;;;;20.05;10.45;;;26.80;68.20;;;;;;1830530;78;21050;-63
2022/07/06 05:27:57;;;;;;;17.52;11.50;;;26.90;68.30;;;;;;1830878;78;21079;-63
2022/07/06 05:30:28;;;;;;;13.03;10.48;;;27.00;68.10;;;;;;1830862;78;21105;-63
2022/07/06 05:32:57;;;;;;;15.95;11.25;;;27.10;68.00;;;;;;1830871;78;21106;-63
2022/07/06 05:35:27;;;;;;;17.80;11.00;;;27.30;68.00;;;;;;1831006;78;21603;-63
2022/07/06 05:37:56;;;;;;;14.25;10.95;;;27.30;67.70;;;;;;1830993;78;21058;-63
2022/07/06 05:40:26;;;;;;;19.50;13.55;;;27.40;67.60;;;;;;1830899;78;21093;-62
2022/07/06 05:42:56;;;;;;;16.10;11.48;;;27.40;67.50;;;;;;1830957;78;21144;-63
2022/07/06 05:45:25;;;;;;;20.45;12.13;;;27.30;67.40;;;;;;1830784;78;21102;-63
2022/07/06 05:50:43;;;;;;;15.68;11.75;;;27.40;67.50;;;;;;1830972;78;21059;-62
2022/07/06 05:53:13;;;;;;;22.05;14.38;;;27.50;67.10;;;;;;1830904;78;21109;-63
2022/07/06 05:55:42;;;;;;;16.70;11.68;;;27.50;67.00;;;;;;1831042;78;21019;-63
2022/07/06 05:58:11;;;;;;;15.65;11.22;;;27.60;67.00;;;;;;1830760;78;21095;-63
2022/07/06 06:00:41;;;;;;;14.95;11.10;;;27.70;66.80;;;;;;1830935;78;21098;-63
2022/07/06 06:03:13;;;;;;;16.70;11.25;;;27.80;66.60;;;;;;1830741;78;21039;-63
2022/07/06 06:05:43;;;;;;;17.00;11.68;;;27.80;66.60;;;;;;1831007;78;21104;-63
2022/07/06 06:08:13;;;;;;;17.37;12.15;;;27.90;66.40;;;;;;1830770;78;21133;-63
2022/07/06 06:10:42;;;;;;;20.57;11.73;;;28.00;65.90;;;;;;1830863;78;21071;-63
2022/07/06 06:13:13;;;;;;;20.25;11.57;;;28.10;65.30;;;;;;1830906;77;21050;-63
2022/07/06 06:15:42;;;;;;;17.20;11.97;;;28.20;65.10;;;;;;1831014;78;21093;-63
2022/07/06 06:18:12;;;;;;;21.10;13.00;;;28.20;65.00;;;;;;1830951;78;21019;-63
2022/07/06 06:20:41;;;;;;;18.23;12.23;;;28.30;65.00;;;;;;1830902;78;21104;-63
2022/07/06 06:23:11;;;;;;;15.60;12.40;;;28.30;64.40;;;;;;1830991;78;21015;-63
2022/07/06 06:25:41;;;;;;;23.22;11.50;;;28.40;64.10;;;;;;1830965;78;21101;-63
2022/07/06 06:28:12;;;;;;;18.52;12.33;;;28.40;64.00;;;;;;1830733;78;21168;-63
2022/07/06 06:30:41;;;;;;;17.92;11.43;;;28.50;64.10;;;;;;1830882;78;21151;-63
2022/07/06 06:33:12;;;;;;;16.02;11.90;;;28.60;63.60;;;;;;1830868;78;21043;-63
2022/07/06 06:35:46;;;;;;;16.25;10.95;;;28.60;62.80;;;;;;1830917;78;21039;-63
2022/07/06 06:38:16;;;;;;;13.50;10.35;;;28.50;63.00;;;;;;1831069;78;21182;-63
2022/07/06 06:40:46;;;;;;;17.82;10.93;;;28.60;63.10;;;;;;1831060;78;21043;-63
2022/07/06 06:43:16;;;;;;;16.57;11.45;;;28.60;62.60;;;;;;1830932;78;21101;-63
2022/07/06 06:45:47;;;;;;;18.55;10.15;;;28.60;62.40;;;;;;1828766;78;21160;-63
2022/07/06 06:48:17;;;;;;;15.55;10.10;;;28.70;61.90;;;;;;1830954;78;21467;-63
2022/07/06 06:50:47;;;;;;;14.83;8.93;;;28.70;61.20;;;;;;1831142;78;21031;-63
2022/07/06 06:53:16;;;;;;;16.10;9.95;;;28.80;61.40;;;;;;1830988;78;21126;-63
2022/07/06 06:55:45;;;;;;;17.37;9.00;;;28.80;61.30;;;;;;1831098;78;21109;-63
2022/07/06 06:58:15;;;;;;;13.48;8.90;;;28.90;60.70;;;;;;1830092;78;21039;-61
2022/07/06 07:00:44;;;;;;;31.17;9.80;;;29.00;60.20;;;;;;1808445;79;21010;-62
2022/07/06 07:03:14;;;;;;;22.15;9.08;;;29.00;59.50;;;;;;1807096;79;21089;-58
2022/07/06 07:05:44;;;;;;;17.70;8.53;;;29.00;59.70;;;;;;1807725;79;21143;-59
2022/07/06 07:08:13;;;;;;;11.63;8.50;;;29.10;60.00;;;;;;1807813;79;21060;-59
2022/07/06 07:10:43;;;;;;;19.23;8.73;;;29.20;59.20;;;;;;1807148;79;21257;-58
2022/07/06 07:13:12;;;;;;;12.23;8.28;;;29.30;58.90;;;;;;1805022;79;21208;-58
2022/07/06 07:15:42;;;;;;;17.15;8.90;;;29.40;58.70;;;;;;1775303;81;21130;-62
2022/07/06 07:18:11;;;;;;;15.15;9.25;;;29.50;58.60;;;;;;1775207;81;21046;-60
2022/07/06 07:20:40;;;;;;;18.67;9.30;;;29.60;58.70;;;;;;1775399;81;21050;-60
2022/07/06 07:23:10;;;;;;;15.48;8.35;;;29.60;57.70;;;;;;1775399;81;21104;-62
2022/07/06 07:25:39;;;;;;;12.33;8.28;;;29.60;58.00;;;;;;1775369;81;21061;-61
2022/07/06 07:28:09;;;;;;;11.75;8.15;;;29.70;57.80;;;;;;1775394;81;21054;-61
2022/07/06 07:30:39;;;;;;;14.87;8.83;;;29.80;57.40;;;;;;1775530;81;21141;-61
2022/07/06 07:33:08;;;;;;;17.98;8.98;;;29.90;57.20;;;;;;1775356;81;21136;-61
2022/07/06 07:35:38;;;;;;;16.40;8.60;;;29.90;57.10;;;;;;1775359;81;21130;-61
2022/07/06 07:38:07;;;;;;;14.53;8.38;;;29.90;56.90;;;;;;1775192;81;21456;-61
2022/07/06 07:40:39;;;;;;;13.43;7.85;;;30.00;57.20;;;;;;1857078;77;21081;-61
2022/07/06 07:43:09;;;;;;;18.45;8.23;;;30.00;57.10;;;;;;1910918;75;21076;-59
2022/07/06 07:45:39;;;;;;;13.95;9.18;;;30.20;56.60;;;;;;1952182;73;21548;-60
2022/07/06 07:48:09;;;;;;;11.35;7.75;;;30.20;56.60;;;;;;1952198;73;21078;-58
2022/07/06 07:50:38;;;;;;;16.50;8.88;;;30.30;56.60;;;;;;1952247;73;21023;-57
2022/07/06 07:53:07;;;;;;;31.23;9.55;;;30.40;56.20;;;;;;1952297;73;21074;-61
2022/07/06 07:55:37;;;;;;;20.88;8.63;;;30.50;56.40;;;;;;1952352;73;21046;-63
2022/07/06 07:58:06;;;;;;;11.15;7.65;;;30.60;55.80;;;;;;1952182;73;21066;-62
2022/07/06 08:00:35;;;;;;;11.28;7.55;;;30.70;55.40;;;;;;1952044;73;21147;-59
2022/07/06 08:03:05;;;;;;;10.60;7.28;;;30.70;54.40;;;;;;1951757;73;21214;-61
2022/07/06 08:05:34;;;;;;;10.88;6.22;;;30.80;54.00;;;;;;1952230;73;21022;-65
2022/07/06 08:08:04;;;;;;;9.68;5.97;;;30.70;53.40;;;;;;1952143;73;20995;-61
2022/07/06 08:10:33;;;;;;;12.80;5.50;;;30.70;53.50;;;;;;1952092;73;21065;-61
2022/07/06 08:13:02;;;;;;;15.55;7.50;;;30.80;52.70;;;;;;1952436;73;21030;-61
2022/07/06 08:15:32;;;;;;;10.03;5.72;;;30.90;52.40;;;;;;1952402;73;21010;-61
2022/07/06 08:18:02;;;;;;;13.18;5.47;;;30.90;51.60;;;;;;1952255;73;21510;-61
2022/07/06 08:20:31;;;;;;;10.85;5.60;;;31.00;51.50;;;;;;1952301;73;21115;-60
2022/07/06 08:23:00;;;;;;;9.15;5.03;;;31.00;50.90;;;;;;1952341;73;21066;-58
2022/07/06 08:25:30;;;;;;;9.68;5.55;;;31.10;50.00;;;;;;1952352;73;21042;-59
2022/07/06 08:27:59;;;;;;;11.93;5.75;;;31.20;49.70;;;;;;1952294;73;21062;-60
2022/07/06 08:30:31;;;;;;;17.15;6.87;;;31.20;49.90;;;;;;1952435;73;21089;-61
2022/07/06 08:33:00;;;;;;;15.63;5.55;;;31.30;49.60;;;;;;1952375;73;21599;-60
2022/07/06 08:35:29;;;;;;;11.80;5.70;;;31.50;49.20;;;;;;1952436;73;21108;-61
2022/07/06 08:37:59;;;;;;;21.45;6.85;;;31.50;48.90;;;;;;1952450;73;21088;-59
2022/07/06 08:40:30;;;;;;;11.00;4.87;;;31.60;48.40;;;;;;1950917;73;21108;-62
2022/07/06 08:43:00;;;;;;;9.28;4.15;;;31.70;46.60;;;;;;1948729;73;21097;-66
2022/07/06 08:45:30;;;;;;;7.03;4.62;;;31.80;43.40;;;;;;1949740;73;21089;-63
2022/07/06 08:48:01;;;;;;;15.63;5.55;;;31.80;44.30;;;;;;1949809;73;21084;-62
2022/07/06 08:50:30;;;;;;;13.88;5.05;;;31.80;44.40;;;;;;1949560;73;21043;-58
2022/07/06 08:53:00;;;;;;;17.55;4.30;;;31.90;43.80;;;;;;1949715;73;21014;-59
2022/07/06 08:55:30;;;;;;;6.58;3.80;;;31.90;42.40;;;;;;1949474;73;21010;-61
2022/07/06 08:57:59;;;;;;;12.88;4.35;;;32.00;42.80;;;;;;1949677;73;21010;-59
2022/07/06 09:00:29;;;;;;;23.40;5.25;;;32.00;42.60;;;;;;1949715;73;21081;-59
2022/07/06 09:02:59;;;;;;;12.30;4.50;;;32.10;42.10;;;;;;1949523;73;21015;-59
2022/07/06 09:05:29;;;;;;;8.50;3.95;;;32.10;42.10;;;;;;1949667;73;21058;-61
2022/07/06 09:07:59;;;;;;;5.33;3.95;;;32.20;41.70;;;;;;1949688;73;21137;-63
2022/07/06 09:10:29;;;;;;;8.63;3.95;;;32.20;41.20;;;;;;1949610;73;21088;-62
2022/07/06 09:13:06;;;;;;;8.93;4.42;;;32.20;40.80;;;;;;1949618;73;21015;-59
2022/07/06 09:15:38;;;;;;;5.42;3.15;;;32.30;40.00;;;;;;1949483;73;21026;-58
2022/07/06 09:18:08;;;;;;;4.55;3.85;;;32.20;39.40;;;;;;1949784;73;21532;-59
2022/07/06 09:20:37;;;;;;;6.67;3.27;;;32.30;40.10;;;;;;1949745;73;21132;-60
2022/07/06 09:23:07;;;;;;;7.17;3.77;;;32.30;39.30;;;;;;1949736;73;21175;-60
2022/07/06 09:25:37;;;;;;;4.87;3.80;;;32.40;39.70;;;;;;1949757;73;21061;-61
2022/07/06 09:28:07;;;;;;;18.42;3.95;;;32.40;39.40;;;;;;1949827;73;21151;-60
2022/07/06 09:30:40;;;;;;;6.97;3.67;;;32.50;39.30;;;;;;1949536;73;20990;-60
2022/07/06 09:33:09;;;;;;;9.63;4.00;;;32.50;39.10;;;;;;1949639;73;21536;-61
2022/07/06 09:35:39;;;;;;;8.90;4.45;;;32.50;38.60;;;;;;1949766;73;21515;-64
2022/07/06 09:38:13;;;;;;;11.53;4.42;;;32.50;38.70;;;;;;1949639;73;21010;-63
2022/07/06 09:40:45;;;;;;;5.70;3.67;;;32.50;38.50;;;;;;1934282;73;21123;-60
2022/07/06 09:43:19;;;;;;;9.25;4.17;;;32.60;39.00;;;;;;1910952;75;21107;-61
2022/07/06 09:45:50;;;;;;;9.13;3.58;;;32.70;38.70;;;;;;1910813;75;21120;-61
2022/07/06 09:48:25;;;;;;;12.05;4.90;;;32.80;38.90;;;;;;1910957;75;21075;-63
2022/07/06 09:51:06;;;;;;;4.83;3.55;;;32.80;38.30;;;;;;1910915;75;21013;-59
2022/07/06 09:53:37;;;;;;;9.45;4.75;;;32.90;38.20;;;;;;1910633;75;21022;-59
2022/07/06 09:56:06;;;;;;;7.65;3.90;;;32.90;38.80;;;;;;1910794;75;20998;-64
2022/07/06 09:58:38;;;;;;;12.10;4.20;;;33.00;37.90;;;;;;1911004;75;21045;-64
2022/07/06 10:01:09;;;;;;;5.25;3.60;;;33.00;38.10;;;;;;1910839;75;21061;-62
2022/07/06 10:03:38;;;;;;;7.55;3.62;;;33.00;37.90;;;;;;1910849;75;21464;-59
2022/07/06 10:06:08;;;;;;;9.95;3.70;;;33.00;38.30;;;;;;1910837;75;21066;-63
2022/07/06 10:08:39;;;;;;;10.93;3.47;;;33.00;38.00;;;;;;1910909;75;21337;-58
2022/07/06 10:11:13;;;;;;;6.55;3.55;;;33.10;37.70;;;;;;1910903;75;21151;-60
2022/07/06 10:13:40;;;;;;;5.75;3.60;;;33.10;37.50;;;;;;1910615;75;21534;-62
2022/07/06 10:16:10;;;;;;;7.28;3.80;;;33.20;37.40;;;;;;1910915;75;21038;-61
2022/07/06 10:18:40;;;;;;;5.78;3.83;;;33.20;36.80;;;;;;1910897;75;21006;-61
2022/07/06 10:21:09;;;;;;;7.33;3.37;;;33.10;36.80;;;;;;1910862;75;21077;-60
2022/07/06 10:23:40;;;;;;;5.95;3.50;;;33.10;37.40;;;;;;1910777;75;21010;-60
2022/07/06 10:26:11;;;;;;;8.98;3.67;;;33.10;36.90;;;;;;1910993;75;21104;-63
2022/07/06 10:28:42;;;;;;;5.50;3.95;;;33.10;37.10;;;;;;1910896;75;21006;-59
2022/07/06 10:31:11;;;;;;;7.30;3.55;;;33.20;37.30;;;;;;1910724;75;21050;-58
2022/07/06 10:33:41;;;;;;;5.28;3.08;;;33.20;36.50;;;;;;1911010;75;20994;-63
2022/07/06 10:36:12;;;;;;;8.75;3.60;;;33.20;36.30;;;;;;1910944;75;21104;-59
2022/07/06 10:38:41;;;;;;;6.97;3.17;;;33.20;36.30;;;;;;1910941;75;21084;-62
2022/07/06 10:41:13;;;;;;;7.95;3.50;;;33.20;36.30;;;;;;1918075;73;21055;-62
2022/07/06 10:43:46;;;;;;;4.42;3.17;;;33.30;36.70;;;;;;1933194;74;21160;-67
2022/07/06 10:46:19;;;;;;;8.18;3.52;;;33.30;36.00;;;;;;1933585;74;21050;-64
2022/07/06 10:48:49;;;;;;;5.92;3.70;;;33.30;36.50;;;;;;1933480;74;21555;-60
2022/07/06 10:51:34;;;;;;;5.22;3.10;;;33.30;36.20;;;;;;1933162;74;21066;-58
2022/07/06 10:54:05;;;;;;;8.45;3.20;;;33.30;36.10;;;;;;1932202;74;21144;-64
2022/07/06 10:56:40;;;;;;;15.15;4.08;;;33.40;35.70;;;;;;1933414;74;21117;-63
2022/07/06 10:59:25;;;;;;;6.28;3.15;;;33.40;36.00;;;;;;1933217;74;21023;-63
2022/07/06 11:02:16;;;;;;;6.47;3.70;;;33.50;36.20;;;;;;1933224;74;21057;-63
2022/07/06 11:04:47;;;;;;;6.75;3.10;;;33.40;35.90;;;;;;1933226;74;21066;-63
2022/07/06 11:07:18;;;;;;;7.37;3.02;;;33.50;35.80;;;;;;1932805;74;21023;-63
2022/07/06 11:09:57;;;;;;;3.25;2.95;;;33.50;36.00;;;;;;1933282;74;21035;-63
2022/07/06 11:12:27;;;;;;;17.40;4.03;;;33.40;35.40;;;;;;1933368;74;21082;-58
2022/07/06 11:14:56;;;;;;;3.90;2.60;;;33.50;35.70;;;;;;1933178;74;21132;-59
2022/07/06 11:17:25;;;;;;;7.17;3.50;;;33.50;34.90;;;;;;1933285;74;21070;-57
2022/07/06 11:19:59;;;;;;;18.62;4.28;;;33.50;35.30;;;;;;1933096;74;21532;-57
2022/07/06 11:22:29;;;;;;;6.33;4.17;;;33.50;35.60;;;;;;1933788;74;21122;-59
2022/07/06 11:24:59;;;;;;;5.10;3.37;;;33.50;35.60;;;;;;1934043;74;21077;-59
2022/07/06 11:27:29;;;;;;;4.28;2.75;;;33.50;35.30;;;;;;1934067;74;21047;-58
2022/07/06 11:29:59;;;;;;;3.75;2.62;;;33.50;34.90;;;;;;1934118;74;21085;-58
2022/07/06 11:32:29;;;;;;;4.78;2.92;;;33.50;34.90;;;;;;1934041;74;21081;-60
2022/07/06 11:34:58;;;;;;;5.33;2.92;;;33.50;34.70;;;;;;1934191;74;21009;-60
2022/07/06 11:37:27;;;;;;;5.12;3.30;;;33.50;35.00;;;;;;1934025;74;21043;-60
2022/07/06 11:39:57;;;;;;;8.00;3.45;;;33.50;35.00;;;;;;1934000;74;21089;-61
2022/07/06 11:42:26;;;;;;;4.83;2.92;;;33.60;35.70;;;;;;1941730;74;21112;-61
2022/07/06 11:44:56;;;;;;;6.47;2.90;;;33.60;34.80;;;;;;1947179;74;21108;-60
2022/07/06 11:47:28;;;;;;;4.55;2.40;;;33.60;34.50;;;;;;1946967;74;21072;-60
2022/07/06 11:49:57;;;;;;;4.33;2.70;;;33.60;34.40;;;;;;1946619;73;21055;-60
2022/07/06 11:52:26;;;;;;;12.75;2.80;;;33.60;34.70;;;;;;1946997;74;21015;-60
2022/07/06 11:55:00;;;;;;;9.20;3.02;;;33.60;34.80;;;;;;1946928;74;21022;-60
2022/07/06 11:57:32;;;;;;;4.20;2.85;;;33.60;33.60;;;;;;1947370;74;21022;-61
2022/07/06 12:00:02;;;;;;;5.87;3.15;;;33.50;33.40;;;;;;1946938;74;21119;-61
2022/07/06 12:02:32;;;;;;;6.12;2.37;;;33.50;33.10;;;;;;1944549;74;21038;-61
2022/07/06 12:05:02;;;;;;;5.03;2.60;;;33.50;32.90;;;;;;1946899;74;21026;-61
2022/07/06 12:07:32;;;;;;;3.98;2.83;;;33.40;33.10;;;;;;1946996;74;21092;-61
2022/07/06 12:10:01;;;;;;;7.10;2.65;;;33.40;33.10;;;;;;1946860;73;21015;-62
2022/07/06 12:12:31;;;;;;;4.00;2.98;;;33.40;32.70;;;;;;1946900;74;21014;-60
2022/07/06 12:15:00;;;;;;;6.87;2.80;;;33.50;33.60;;;;;;1946906;74;21015;-61
2022/07/06 12:17:30;;;;;;;7.45;3.00;;;33.50;33.50;;;;;;1946856;74;21019;-63
2022/07/06 12:19:59;;;;;;;3.90;2.77;;;33.50;33.10;;;;;;1947033;74;21022;-61
2022/07/06 12:22:28;;;;;;;4.92;2.40;;;33.60;32.80;;;;;;1947031;74;21022;-61
2022/07/06 12:24:58;;;;;;;3.67;2.27;;;33.60;32.80;;;;;;1946958;74;21128;-61
2022/07/06 12:27:27;;;;;;;6.80;2.42;;;33.60;33.10;;;;;;1946933;74;21015;-62
2022/07/06 12:29:59;;;;;;;4.67;2.30;;;33.60;32.50;;;;;;1946886;74;21018;-60
2022/07/06 12:32:29;;;;;;;7.00;2.40;;;33.50;32.60;;;;;;1943771;73;21042;-61
2022/07/06 12:35:06;;;;;;;5.22;2.50;;;33.50;32.90;;;;;;1947060;74;21092;-61
2022/07/06 12:37:36;;;;;;;4.45;2.60;;;33.50;32.80;;;;;;1947158;74;21031;-61
2022/07/06 12:40:13;;;;;;;6.72;2.70;;;33.50;32.70;;;;;;1946891;74;21080;-62
2022/07/06 12:42:49;;;;;;;7.00;2.37;;;33.40;31.80;;;;;;1940579;74;21148;-63
2022/07/06 12:45:19;;;;;;;6.05;1.82;;;33.40;31.70;;;;;;1933961;74;21031;-64
2022/07/06 12:48:03;;;;;;;4.30;1.80;;;33.40;31.10;;;;;;1933911;74;21003;-62
2022/07/06 12:50:42;;;;;;;3.10;2.45;;;33.30;30.80;;;;;;1933899;74;21081;-60
2022/07/06 12:53:27;;;;;;;4.83;2.40;;;33.30;30.50;;;;;;1933839;74;21015;-62
2022/07/06 12:56:13;;;;;;;4.70;1.92;;;33.40;30.60;;;;;;1934061;74;21085;-60
2022/07/06 12:59:00;;;;;;;5.03;1.95;;;33.40;30.20;;;;;;1934077;74;21100;-61